This is the latest recevied weather packets stored in our database for station/object BV3BA-13. If no packets are shown the sender has not sent any weather packets the latest 10 day(s).
| Time | Temp. | Humidity | Pressure | Rain* | Wind** | Luminosity | Snow |
|---|---|---|---|---|---|---|---|
| 1777387024 | 25° C | 75% | 1009.3 hPa | 0 mm | - | - | - |
| 1777383423 | 25° C | 74% | 1009.1 hPa | 0 mm | - | - | - |
| 1777382831 | 25° C | 77% | 1009.1 hPa | 0 mm | - | - | - |
| 1777382224 | 25° C | 77% | 1009 hPa | 0 mm | - | - | - |
| 1777381624 | 25° C | 76% | 1009 hPa | 0 mm | - | - | - |
| 1777381023 | 25.56° C | 74% | 1008.9 hPa | 0 mm | - | - | - |
| 1777378623 | 25.56° C | 69% | 1008.5 hPa | 0 mm | - | - | - |
| 1777376823 | 25.56° C | 68% | 1008.2 hPa | 0 mm | - | - | - |
| 1777372623 | 26.67° C | 63% | 1007.6 hPa | 0 mm | - | - | - |
| 1777372024 | 26.67° C | 63% | 1007.4 hPa | 0 mm | - | - | - |
| 1777371424 | 26.67° C | 63% | 1007.4 hPa | 0 mm | - | - | - |
| 1777370824 | 26.67° C | 59% | 1007.3 hPa | 0 mm | - | - | - |
| 1777370223 | 26.67° C | 59% | 1007.4 hPa | 0 mm | - | - | - |
| 1777369624 | 26.67° C | 58% | 1007.3 hPa | 0 mm | - | - | - |
| 1777369024 | 26.67° C | 56% | 1007.3 hPa | 0 mm | - | - | - |
| 1777368423 | 27.22° C | 54% | 1007.2 hPa | 0 mm | - | - | - |
| 1777367823 | 27.22° C | 52% | 1007.2 hPa | 0 mm | - | - | - |
| 1777365423 | 27.78° C | 49% | 1007 hPa | 0 mm | - | - | - |
| 1777364824 | 27.78° C | 52% | 1007 hPa | 0 mm | - | - | - |
| 1777364223 | 27.78° C | 52% | 1007 hPa | 0 mm | - | - | - |
| 1777363623 | 27.22° C | 52% | 1007 hPa | 0 mm | - | - | - |
| 1777363024 | 27.78° C | 55% | 1007 hPa | 0 mm | - | - | - |
| 1777362423 | 27.22° C | 54% | 1007.2 hPa | 0 mm | - | - | - |
| 1777361823 | 27.78° C | 56% | 1007.3 hPa | 0 mm | - | - | - |
| 1777361224 | 27.78° C | 54% | 1007.5 hPa | 0 mm | - | - | - |
* Rain latest hour (hover to see other rain measurements)
** Current wind speed in m/s (hover to see current wind gust speed)